createdAt,value
2019-06-27T00:00:55.049Z,96608.41
2019-06-27T00:03:29.639Z,96603.59
2019-06-27T00:06:04.769Z,96604.05
2019-06-27T00:08:36.157Z,96603.92
2019-06-27T00:11:12.029Z,96601.77
2019-06-27T00:13:44.681Z,96599.88
2019-06-27T00:16:19.920Z,96597.55
2019-06-27T00:18:51.278Z,96589.69
2019-06-27T00:21:24.161Z,96585.48
2019-06-27T00:23:56.148Z,96587.06
2019-06-27T00:26:28.275Z,96593.72
2019-06-27T00:29:00.259Z,96588.34
2019-06-27T00:31:33.288Z,96586.61
2019-06-27T00:34:06.306Z,96589.00
2019-06-27T00:36:40.204Z,96583.27
2019-06-27T00:39:18.145Z,96583.41
2019-06-27T00:41:53.722Z,96580.13
2019-06-27T00:44:26.082Z,96583.34
2019-06-27T00:46:57.366Z,96579.21
2019-06-27T00:49:31.012Z,96585.40
2019-06-27T00:52:05.032Z,96581.80
2019-06-27T00:54:40.029Z,96580.45
2019-06-27T00:57:15.074Z,96580.29
2019-06-27T00:59:48.339Z,96582.45
2019-06-27T01:02:23.466Z,96583.08
2019-06-27T01:04:58.999Z,96573.74
2019-06-27T01:07:30.506Z,96570.89
2019-06-27T01:10:03.365Z,96575.67
2019-06-27T01:12:36.516Z,96577.67
2019-06-27T01:15:12.966Z,96577.18
2019-06-27T01:17:45.381Z,96573.67
2019-06-27T01:20:18.453Z,96578.39
2019-06-27T01:22:51.186Z,96571.05
2019-06-27T01:25:22.407Z,96575.05
2019-06-27T01:27:55.675Z,96569.91
2019-06-27T01:30:27.666Z,96570.20
2019-06-27T01:33:00.663Z,96573.21
2019-06-27T01:35:33.637Z,96576.13
2019-06-27T01:38:06.478Z,96569.38
2019-06-27T01:40:39.716Z,96578.58
2019-06-27T01:43:16.989Z,96573.20
2019-06-27T01:45:54.340Z,96574.91
2019-06-27T01:48:27.837Z,96575.00
2019-06-27T01:51:00.886Z,96575.00
2019-06-27T01:53:33.789Z,96573.10
2019-06-27T01:56:09.412Z,96569.04
2019-06-27T01:58:43.527Z,96571.86
2019-06-27T02:01:17.670Z,96567.73
2019-06-27T02:03:51.411Z,96567.44
2019-06-27T02:06:24.741Z,96564.40
2019-06-27T02:08:57.746Z,96565.22
2019-06-27T02:11:29.874Z,96564.55
2019-06-27T02:14:05.406Z,96570.63
2019-06-27T02:16:38.766Z,96568.00
2019-06-27T02:19:26.272Z,96570.89
2019-06-27T02:21:57.724Z,96566.89
2019-06-27T02:24:28.951Z,96572.64
2019-06-27T02:27:02.843Z,96567.08
2019-06-27T02:29:34.865Z,96568.24
2019-06-27T02:32:07.048Z,96571.25
2019-06-27T02:34:40.044Z,96571.59
2019-06-27T02:37:16.285Z,96569.75
2019-06-27T02:39:47.820Z,96575.09
2019-06-27T02:42:21.883Z,96574.35
2019-06-27T02:44:55.750Z,96576.29
2019-06-27T02:47:27.056Z,96576.29
2019-06-27T02:50:02.512Z,96570.73
2019-06-27T02:52:33.961Z,96576.09
2019-06-27T02:55:06.995Z,96570.86
2019-06-27T02:57:39.133Z,96571.30
2019-06-27T03:00:13.672Z,96568.19
2019-06-27T03:02:44.874Z,96571.41
2019-06-27T03:05:20.201Z,96568.92
2019-06-27T03:07:51.550Z,96569.98
2019-06-27T03:10:25.007Z,96571.92
2019-06-27T03:12:58.007Z,96578.03
2019-06-27T03:15:31.016Z,96576.33
2019-06-27T03:18:03.977Z,96578.31
2019-06-27T03:20:37.999Z,96576.13
2019-06-27T03:23:16.819Z,96582.12
2019-06-27T03:25:51.182Z,96579.59
2019-06-27T03:28:25.155Z,96579.18
2019-06-27T03:30:59.989Z,96581.36
2019-06-27T03:33:41.379Z,96577.73
2019-06-27T03:36:13.257Z,96577.70
2019-06-27T03:38:47.245Z,96579.48
2019-06-27T03:41:23.051Z,96577.28
2019-06-27T03:43:55.215Z,96575.98
2019-06-27T03:49:46.024Z,96571.20
2019-06-27T03:52:19.147Z,96575.76
2019-06-27T03:54:51.902Z,96573.92
2019-06-27T03:57:25.104Z,96572.58
2019-06-27T03:59:58.319Z,96570.91
2019-06-27T04:02:32.165Z,96571.15
2019-06-27T04:08:44.838Z,96575.22
2019-06-27T04:11:23.673Z,96575.53
2019-06-27T04:13:55.352Z,96572.73
2019-06-27T04:16:28.260Z,96571.95
2019-06-27T04:19:01.581Z,96569.94
2019-06-27T04:21:34.363Z,96567.09
2019-06-27T04:24:08.301Z,96571.87
2019-06-27T04:26:40.559Z,96568.53
2019-06-27T04:29:32.632Z,96571.14
2019-06-27T04:31:53.920Z,96569.38
2019-06-27T04:34:29.926Z,96564.37
2019-06-27T04:37:01.424Z,96572.72
2019-06-27T04:39:34.163Z,96577.02
2019-06-27T04:42:05.766Z,96571.06
2019-06-27T04:44:39.757Z,96573.42
2019-06-27T04:47:17.882Z,96572.95
2019-06-27T04:49:51.621Z,96572.80
2019-06-27T04:52:24.477Z,96574.98
2019-06-27T04:55:02.740Z,96568.38
2019-06-27T04:57:32.606Z,96574.21
2019-06-27T05:00:04.844Z,96569.60
2019-06-27T05:02:37.605Z,96565.88
2019-06-27T05:05:12.319Z,96561.45
2019-06-27T05:07:47.444Z,96555.11
2019-06-27T05:10:20.903Z,96562.95
2019-06-27T05:12:52.143Z,96558.21
2019-06-27T05:15:23.557Z,96552.92
2019-06-27T05:17:59.305Z,96546.81
2019-06-27T05:20:31.075Z,96548.42
2019-06-27T05:23:03.112Z,96551.27
2019-06-27T05:25:36.823Z,96546.56
2019-06-27T05:28:08.036Z,96549.78
2019-06-27T05:30:39.683Z,96549.89
2019-06-27T05:33:13.899Z,96546.29
2019-06-27T05:35:45.417Z,96544.12
2019-06-27T05:38:18.214Z,96541.11
2019-06-27T05:40:51.921Z,96537.42
2019-06-27T05:43:25.668Z,96534.13
2019-06-27T05:45:57.823Z,96540.56
2019-06-27T05:48:33.528Z,96540.03
2019-06-27T05:51:06.816Z,96538.56
2019-06-27T05:53:45.615Z,96539.80
2019-06-27T05:56:16.150Z,96538.23
2019-06-27T05:58:51.897Z,96539.53
2019-06-27T06:01:23.168Z,96539.47
2019-06-27T06:03:56.119Z,96546.25
2019-06-27T06:06:28.100Z,96548.59
2019-06-27T06:09:01.069Z,96553.67
2019-06-27T06:11:33.870Z,96559.57
2019-06-27T06:14:07.935Z,96558.17
2019-06-27T06:16:39.746Z,96560.38
2019-06-27T06:19:18.462Z,96555.31
2019-06-27T06:21:51.993Z,96554.71
2019-06-27T06:24:26.758Z,96560.26
2019-06-27T06:26:57.995Z,96532.97
2019-06-27T06:29:30.104Z,96552.14
2019-06-27T06:32:03.880Z,96552.45
2019-06-27T06:34:36.396Z,96555.54
2019-06-27T06:37:09.257Z,96555.06
2019-06-27T06:39:42.420Z,96553.32
2019-06-27T06:42:16.537Z,96557.13
2019-06-27T06:44:48.062Z,96550.11
2019-06-27T06:47:22.831Z,96543.42
2019-06-27T06:49:55.233Z,96547.82
2019-06-27T06:52:28.173Z,96547.47
2019-06-27T06:55:01.026Z,96547.67
2019-06-27T06:57:34.272Z,96543.43
2019-06-27T07:00:09.007Z,96543.87
2019-06-27T07:02:43.122Z,96542.75
2019-06-27T07:05:16.294Z,96538.47
2019-06-27T07:07:49.364Z,96542.30
2019-06-27T07:10:23.995Z,96544.71
2019-06-27T07:12:55.199Z,96549.29
2019-06-27T07:15:30.101Z,96544.81
2019-06-27T07:18:04.347Z,96544.66
2019-06-27T07:20:37.273Z,96543.48
2019-06-27T07:23:10.276Z,96540.56
2019-06-27T07:25:43.329Z,96535.88
2019-06-27T07:28:16.305Z,96539.11
2019-06-27T07:30:49.251Z,96539.98
2019-06-27T07:33:21.545Z,96542.63
2019-06-27T07:35:54.413Z,96545.17
2019-06-27T07:38:26.503Z,96537.34
2019-06-27T07:40:58.443Z,96542.48
2019-06-27T07:43:32.699Z,96539.84
2019-06-27T07:46:04.483Z,96538.66
2019-06-27T07:48:36.467Z,96545.84
2019-06-27T07:51:08.918Z,96544.52
2019-06-27T07:53:40.352Z,96545.66
2019-06-27T07:56:14.403Z,96545.52
2019-06-27T07:58:47.571Z,96541.23
2019-06-27T08:01:34.077Z,96536.77
2019-06-27T08:03:53.362Z,96538.22
2019-06-27T08:06:27.019Z,96535.34
2019-06-27T08:09:00.236Z,96535.13
2019-06-27T08:11:31.455Z,96541.53
2019-06-27T08:14:06.214Z,96541.53
2019-06-27T08:16:37.593Z,96541.96
2019-06-27T08:19:10.741Z,96544.73
2019-06-27T08:21:45.506Z,96543.05
2019-06-27T08:24:19.520Z,96544.66
2019-06-27T08:26:52.047Z,96539.80
2019-06-27T08:29:26.855Z,96538.59
2019-06-27T08:31:58.524Z,96534.36
2019-06-27T08:34:31.634Z,96529.69
2019-06-27T08:37:05.082Z,96526.98
2019-06-27T08:39:38.011Z,96531.34
2019-06-27T08:42:10.766Z,96528.08
2019-06-27T08:44:42.083Z,96520.78
2019-06-27T08:47:14.697Z,96525.66
2019-06-27T08:49:47.827Z,96527.38
2019-06-27T08:52:19.834Z,96524.80
2019-06-27T08:54:52.071Z,96525.88
2019-06-27T08:57:27.404Z,96522.70
2019-06-27T08:59:59.477Z,96517.24
2019-06-27T09:02:32.823Z,96488.61
2019-06-27T09:05:04.821Z,96515.32
2019-06-27T09:07:40.664Z,96509.17
2019-06-27T09:10:14.818Z,96513.99
2019-06-27T09:12:48.103Z,96512.30
2019-06-27T09:15:19.889Z,96516.58
2019-06-27T09:17:52.199Z,96516.16
2019-06-27T09:20:24.858Z,96517.29
2019-06-27T09:22:57.637Z,96516.66
2019-06-27T09:25:28.896Z,96513.98
2019-06-27T09:28:02.165Z,96520.38
2019-06-27T09:30:35.063Z,96521.56
2019-06-27T09:33:08.194Z,96521.12
2019-06-27T09:35:41.927Z,96522.61
2019-06-27T09:38:13.917Z,96522.75
2019-06-27T09:40:47.333Z,96513.05
2019-06-27T09:43:19.113Z,96522.14
2019-06-27T09:45:52.130Z,96521.87
2019-06-27T09:48:24.989Z,96527.06
2019-06-27T09:50:59.030Z,96524.88
2019-06-27T09:53:31.023Z,96520.40
2019-06-27T09:56:04.020Z,96514.70
2019-06-27T09:58:37.415Z,96516.94
2019-06-27T10:01:10.989Z,96518.09
2019-06-27T10:03:46.398Z,96513.66
2019-06-27T10:06:19.168Z,96510.77
2019-06-27T10:08:52.338Z,96505.73
2019-06-27T10:11:25.130Z,96505.33
2019-06-27T10:14:00.511Z,96494.64
2019-06-27T10:16:36.411Z,96491.05
2019-06-27T10:19:11.973Z,96489.66
2019-06-27T10:21:43.220Z,96488.58
2019-06-27T10:24:16.396Z,96480.45
2019-06-27T10:26:48.328Z,96482.67
2019-06-27T10:29:31.490Z,96483.39
2019-06-27T10:32:05.418Z,96474.64
2019-06-27T10:34:39.340Z,96476.38
2019-06-27T10:40:47.277Z,96478.97
2019-06-27T10:43:19.309Z,96478.89
2019-06-27T10:45:51.478Z,96469.32
2019-06-27T10:51:48.939Z,96471.78
2019-06-27T10:54:25.762Z,96478.89
2019-06-27T10:57:00.384Z,96477.36
2019-06-27T10:59:33.447Z,96473.02
2019-06-27T11:02:13.842Z,96472.93
2019-06-27T11:04:47.102Z,96477.23
2019-06-27T11:07:19.544Z,96472.98
2019-06-27T11:24:05.250Z,96438.57
2019-06-27T11:37:34.128Z,96411.66
2019-06-27T11:43:33.828Z,96420.33
2019-06-27T11:46:08.832Z,96421.66
2019-06-27T11:52:26.473Z,96417.75
2019-06-27T11:55:00.807Z,96411.05
2019-06-27T11:57:34.821Z,96404.05
2019-06-27T12:00:08.881Z,96409.55
2019-06-27T12:02:42.892Z,96398.88
2019-06-27T12:05:16.760Z,96404.23
2019-06-27T12:07:49.759Z,96401.84
2019-06-27T12:10:57.136Z,96395.59
2019-06-27T12:13:29.983Z,96399.89
2019-06-27T12:16:02.901Z,96405.91
2019-06-27T12:18:35.822Z,96402.74
2019-06-27T12:21:14.476Z,96402.99
2019-06-27T12:27:16.676Z,96402.04
2019-06-27T12:29:51.110Z,96384.14
2019-06-27T12:32:25.219Z,96386.73
2019-06-27T12:48:36.944Z,96363.13
2019-06-27T12:51:08.079Z,96357.23
2019-06-27T12:53:42.635Z,96346.25
2019-06-27T12:56:23.350Z,96354.16
2019-06-27T12:58:56.060Z,96360.97
2019-06-27T13:01:31.239Z,96368.02
2019-06-27T13:04:22.372Z,96368.13
2019-06-27T13:06:41.857Z,96361.10
2019-06-27T13:09:14.242Z,96362.84
2019-06-27T13:11:48.551Z,96364.61
2019-06-27T13:14:21.153Z,96373.78
2019-06-27T13:16:54.662Z,96377.61
2019-06-27T13:19:28.602Z,96351.03
2019-06-27T13:22:01.189Z,96354.16
2019-06-27T13:24:32.424Z,96359.73
2019-06-27T13:27:05.531Z,96361.23
2019-06-27T13:29:38.198Z,96367.09
2019-06-27T13:32:11.168Z,96370.09
2019-06-27T13:34:43.286Z,96363.34
2019-06-27T13:37:16.230Z,96368.03
2019-06-27T13:39:49.299Z,96378.05
2019-06-27T13:42:23.402Z,96382.55
2019-06-27T13:44:56.251Z,96371.95
2019-06-27T13:47:30.156Z,96360.98
2019-06-27T13:50:02.334Z,96364.36
2019-06-27T13:52:36.356Z,96361.27
2019-06-27T13:55:08.706Z,96354.54
2019-06-27T13:57:41.671Z,96339.44
2019-06-27T14:00:15.935Z,96341.06
2019-06-27T14:02:47.283Z,96337.42
2019-06-27T14:05:20.510Z,96331.74
2019-06-27T14:07:53.241Z,96325.99
2019-06-27T14:10:28.086Z,96322.66
2019-06-27T14:12:59.321Z,96328.75
2019-06-27T14:15:34.169Z,96334.78
2019-06-27T14:18:05.978Z,96340.70
2019-06-27T14:20:39.487Z,96344.27
2019-06-27T14:23:13.083Z,96348.30
2019-06-27T14:25:45.412Z,96354.30
2019-06-27T14:28:18.627Z,96348.83
2019-06-27T14:30:51.586Z,96349.29
2019-06-27T14:33:23.869Z,96345.92
2019-06-27T14:35:55.414Z,96333.48
2019-06-27T14:38:28.567Z,96321.00
2019-06-27T14:41:01.563Z,96324.72
2019-06-27T14:43:37.803Z,96327.58
2019-06-27T14:46:10.658Z,96318.47
2019-06-27T14:48:49.908Z,96315.93
2019-06-27T14:51:23.651Z,96303.80
2019-06-27T14:53:57.342Z,96297.99
2019-06-27T14:56:33.136Z,96304.80
2019-06-27T14:59:05.712Z,96310.66
2019-06-27T15:01:37.494Z,96321.94
2019-06-27T15:04:10.683Z,96338.40
2019-06-27T15:06:43.693Z,96342.83
2019-06-27T15:09:17.690Z,96340.64
2019-06-27T15:11:52.491Z,96343.88
2019-06-27T15:14:27.800Z,96339.73
2019-06-27T15:17:03.273Z,96349.58
2019-06-27T15:19:36.477Z,96348.20
2019-06-27T15:22:10.851Z,96348.74
2019-06-27T15:24:42.110Z,96345.00
2019-06-27T15:27:13.872Z,96344.98
2019-06-27T15:29:46.859Z,96344.00
2019-06-27T15:32:20.887Z,96347.87
2019-06-27T15:34:53.531Z,96345.17
2019-06-27T15:37:25.846Z,96341.06
2019-06-27T15:39:58.849Z,96340.06
2019-06-27T15:42:30.051Z,96329.30
2019-06-27T15:45:01.944Z,96323.88
2019-06-27T15:47:35.034Z,96317.45
2019-06-27T15:50:08.270Z,96321.72
2019-06-27T15:52:40.988Z,96325.88
2019-06-27T15:55:14.034Z,96324.61
2019-06-27T15:57:47.149Z,96321.55
2019-06-27T16:00:19.901Z,96327.77
2019-06-27T16:02:52.814Z,96321.98
2019-06-27T16:05:26.321Z,96315.72
2019-06-27T16:08:00.602Z,96309.86
2019-06-27T16:10:31.919Z,96307.30
2019-06-27T16:13:04.944Z,96302.58
2019-06-27T16:15:38.239Z,96297.91
2019-06-27T16:18:11.407Z,96300.56
2019-06-27T16:20:43.053Z,96296.88
2019-06-27T16:23:17.010Z,96296.50
2019-06-27T16:25:50.176Z,96296.72
2019-06-27T16:28:26.742Z,96294.98
2019-06-27T16:30:58.571Z,96295.48
2019-06-27T16:33:31.046Z,96295.30
2019-06-27T16:36:05.240Z,96293.55
2019-06-27T16:38:38.223Z,96294.48
2019-06-27T16:41:11.862Z,96296.03
2019-06-27T16:43:44.278Z,96297.73
2019-06-27T16:46:17.210Z,96295.30
2019-06-27T16:48:51.123Z,96294.31
2019-06-27T16:51:23.361Z,96292.00
2019-06-27T16:53:56.288Z,96289.52
2019-06-27T16:56:29.266Z,96292.50
2019-06-27T16:59:06.008Z,96298.59
2019-06-27T17:01:42.993Z,96298.78
2019-06-27T17:04:14.334Z,96306.36
2019-06-27T17:06:46.348Z,96309.12
2019-06-27T17:09:20.474Z,96310.78
2019-06-27T17:11:52.890Z,96310.10
2019-06-27T17:14:33.711Z,96310.94
2019-06-27T17:17:05.287Z,96313.02
2019-06-27T17:19:39.108Z,96320.20
2019-06-27T17:22:12.531Z,96322.22
2019-06-27T17:24:46.388Z,96324.63
2019-06-27T17:27:21.607Z,96331.59
2019-06-27T17:29:52.880Z,96331.58
2019-06-27T17:32:27.159Z,96329.10
2019-06-27T17:34:59.558Z,96332.33
2019-06-27T17:37:31.394Z,96334.39
2019-06-27T17:40:10.010Z,96339.39
2019-06-27T17:42:42.483Z,96344.72
2019-06-27T17:45:20.415Z,96344.25
2019-06-27T17:47:52.855Z,96346.31
2019-06-27T17:50:28.177Z,96343.53
2019-06-27T17:52:59.431Z,96350.28
2019-06-27T17:55:32.709Z,96350.20
2019-06-27T17:58:06.054Z,96352.43
2019-06-27T18:00:39.607Z,96349.31
2019-06-27T18:03:13.971Z,96359.13
2019-06-27T18:05:47.699Z,96356.31
2019-06-27T18:08:20.262Z,96364.19
2019-06-27T18:14:44.553Z,96363.46
2019-06-27T18:17:33.946Z,96358.56
2019-06-27T18:20:07.717Z,96359.92
2019-06-27T18:22:42.899Z,96359.05
2019-06-27T18:25:17.524Z,96361.97
2019-06-27T18:27:51.216Z,96361.18
2019-06-27T18:30:25.738Z,96370.85
2019-06-27T18:33:01.000Z,96367.17
2019-06-27T18:35:42.256Z,96369.33
2019-06-27T18:38:14.892Z,96371.89
2019-06-27T18:40:46.484Z,96371.96
2019-06-27T18:50:36.693Z,96381.39
2019-06-27T18:56:47.209Z,96381.07
2019-06-27T18:59:18.449Z,96386.26
2019-06-27T19:01:54.034Z,96388.22
2019-06-27T19:04:31.167Z,96386.91
2019-06-27T19:07:02.847Z,96381.58
2019-06-27T19:09:35.463Z,96395.66
2019-06-27T19:12:09.041Z,96395.45
2019-06-27T19:14:42.544Z,96406.66
2019-06-27T19:17:17.747Z,96413.94
2019-06-27T19:19:53.677Z,96411.48
2019-06-27T19:22:43.952Z,96414.31
2019-06-27T19:25:30.351Z,96413.61
2019-06-27T19:28:02.756Z,96418.45
2019-06-27T19:30:34.030Z,96418.86
2019-06-27T19:33:07.998Z,96412.59
2019-06-27T19:35:41.291Z,96427.81
2019-06-27T19:38:12.989Z,96426.14
2019-06-27T19:40:47.008Z,96424.48
2019-06-27T19:43:27.886Z,96424.86
2019-06-27T19:45:53.338Z,96428.38
2019-06-27T19:48:25.757Z,96436.28
2019-06-27T19:51:00.471Z,96433.77
2019-06-27T19:53:32.516Z,96442.28
2019-06-27T19:56:05.181Z,96436.15
2019-06-27T19:58:39.452Z,96437.89
2019-06-27T20:01:12.291Z,96391.31
2019-06-27T20:03:45.716Z,96449.55
2019-06-27T20:06:18.469Z,96453.19
2019-06-27T20:08:51.078Z,96453.41
2019-06-27T20:11:25.496Z,96455.91
2019-06-27T20:13:59.269Z,96455.91
2019-06-27T20:16:32.231Z,96461.66
2019-06-27T20:19:06.100Z,96462.27
2019-06-27T20:21:40.285Z,96467.09
2019-06-27T20:24:14.636Z,96457.00
2019-06-27T20:26:48.665Z,96461.69
2019-06-27T20:29:22.577Z,96459.20
2019-06-27T20:31:53.876Z,96463.87
2019-06-27T20:34:28.353Z,96461.23
2019-06-27T20:37:02.329Z,96465.94
2019-06-27T20:39:35.300Z,96472.55
2019-06-27T20:42:08.258Z,96474.28
2019-06-27T20:44:40.249Z,96476.74
2019-06-27T20:47:12.077Z,96467.91
2019-06-27T20:49:46.035Z,96469.28
2019-06-27T20:52:18.525Z,96480.70
2019-06-27T20:54:52.076Z,96488.03
2019-06-27T20:57:26.226Z,96489.34
2019-06-27T21:00:01.137Z,96501.26
2019-06-27T21:02:32.560Z,96501.16
2019-06-27T21:05:06.753Z,96490.89
2019-06-27T21:07:38.433Z,96504.06
2019-06-27T21:10:13.032Z,96511.28
2019-06-27T21:12:44.384Z,96513.09
2019-06-27T21:15:17.704Z,96513.86
2019-06-27T21:17:49.369Z,96521.72
2019-06-27T21:20:22.769Z,96518.91
2019-06-27T21:22:57.159Z,96516.40
2019-06-27T21:25:29.561Z,96513.59
2019-06-27T21:28:02.504Z,96524.00
2019-06-27T21:30:35.657Z,96522.03
2019-06-27T21:33:08.984Z,96530.20
2019-06-27T21:35:44.664Z,96523.16
2019-06-27T21:38:17.315Z,96531.88
2019-06-27T21:40:49.506Z,96531.86
2019-06-27T21:43:24.543Z,96535.55
2019-06-27T21:45:56.551Z,96538.21
2019-06-27T21:48:29.200Z,96540.98
2019-06-27T21:51:03.276Z,96545.69
2019-06-27T21:53:40.652Z,96552.87
2019-06-27T21:56:16.866Z,96557.09
2019-06-27T21:58:49.198Z,96552.65
2019-06-27T22:04:46.585Z,96552.02
2019-06-27T22:07:21.674Z,96556.02
2019-06-27T22:09:53.365Z,96556.94
2019-06-27T22:12:26.370Z,96559.33
2019-06-27T22:14:58.664Z,96565.16
2019-06-27T22:17:31.646Z,96569.14
2019-06-27T22:20:14.470Z,96568.27
2019-06-27T22:22:37.842Z,96566.52
2019-06-27T22:25:11.425Z,96578.02
2019-06-27T22:27:43.026Z,96568.63
2019-06-27T22:30:15.257Z,96580.60
2019-06-27T22:32:50.113Z,96583.92
2019-06-27T22:35:21.331Z,96581.89
2019-06-27T22:38:11.119Z,96590.19
2019-06-27T22:41:02.698Z,96577.34
2019-06-27T22:43:52.359Z,96583.48
2019-06-27T22:46:43.869Z,96582.70
2019-06-27T22:49:16.113Z,96579.93
2019-06-27T22:52:05.977Z,96584.97
2019-06-27T22:54:40.842Z,96576.63
2019-06-27T22:57:16.220Z,96587.91
2019-06-27T22:59:51.789Z,96587.15
2019-06-27T23:02:24.884Z,96588.55
2019-06-27T23:04:58.117Z,96582.45
2019-06-27T23:07:33.167Z,96585.37
2019-06-27T23:10:06.204Z,96585.75
2019-06-27T23:12:39.306Z,96578.93
2019-06-27T23:15:12.419Z,96580.86
2019-06-27T23:17:43.972Z,96585.74
2019-06-27T23:20:18.208Z,96585.11
2019-06-27T23:22:51.301Z,96590.66
2019-06-27T23:25:25.224Z,96588.95
2019-06-27T23:27:57.088Z,96593.72
2019-06-27T23:30:31.116Z,96587.38
2019-06-27T23:33:03.174Z,96596.75
2019-06-27T23:35:37.407Z,96596.30
2019-06-27T23:38:09.136Z,96596.14
2019-06-27T23:40:41.374Z,96598.08
2019-06-27T23:43:14.313Z,96596.63
2019-06-27T23:45:45.616Z,96595.95
2019-06-27T23:48:18.430Z,96597.73
2019-06-27T23:50:53.048Z,96599.20
2019-06-27T23:53:27.366Z,96602.16
2019-06-27T23:55:59.681Z,96604.59
2019-06-27T23:58:32.520Z,96607.84
